createdAt,value
2022-08-03T00:00:00.846Z,16.63
2022-08-03T00:02:02.243Z,16.54
2022-08-03T00:04:03.915Z,16.52
2022-08-03T00:04:47.723Z,16.52
2022-08-03T00:06:48.972Z,16.42
2022-08-03T00:08:50.019Z,16.48
2022-08-03T00:10:51.270Z,16.5
2022-08-03T00:12:52.624Z,16.47
2022-08-03T00:14:54.418Z,16.4
2022-08-03T00:16:56.157Z,16.41
2022-08-03T00:18:57.153Z,16.35
2022-08-03T00:20:58.250Z,16.23
2022-08-03T00:22:59.206Z,16.09
2022-08-03T00:27:01.638Z,15.88
2022-08-03T00:29:02.853Z,15.8
2022-08-03T00:31:04.189Z,15.7
2022-08-03T00:33:05.238Z,15.61
2022-08-03T00:35:08.460Z,15.69
2022-08-03T00:37:07.984Z,15.74
2022-08-03T00:39:09.855Z,15.66
2022-08-03T00:41:11.632Z,15.61
2022-08-03T00:43:12.755Z,15.47
2022-08-03T00:45:13.849Z,15.38
2022-08-03T00:47:15.384Z,15.43
2022-08-03T00:49:17.131Z,15.45
2022-08-03T00:51:18.872Z,15.62
2022-08-03T00:53:20.520Z,15.62
2022-08-03T00:55:22.049Z,15.56
2022-08-03T00:57:23.598Z,15.53
2022-08-03T00:59:24.536Z,15.55
2022-08-03T01:01:25.822Z,15.57
2022-08-03T01:03:26.808Z,15.72
2022-08-03T01:05:27.720Z,15.67
2022-08-03T01:07:28.862Z,15.67
2022-08-03T01:09:30.493Z,15.54
2022-08-03T01:11:31.983Z,15.41
2022-08-03T01:13:59.838Z,15.28
2022-08-03T01:15:35.386Z,15.17
2022-08-03T01:17:36.877Z,15.02
2022-08-03T01:19:38.358Z,15.06
2022-08-03T01:21:39.799Z,15.18
2022-08-03T01:23:40.867Z,15.13
2022-08-03T01:25:42.699Z,15.07
2022-08-03T01:27:43.850Z,14.98
2022-08-03T01:29:44.909Z,14.87
2022-08-03T01:32:52.189Z,14.81
2022-08-03T01:33:47.226Z,14.81
2022-08-03T01:35:48.921Z,14.8
2022-08-03T01:37:50.361Z,14.89
2022-08-03T01:39:51.674Z,15
2022-08-03T01:41:53.212Z,14.9
2022-08-03T01:43:55.656Z,14.8
2022-08-03T01:45:55.503Z,14.81
2022-08-03T01:47:56.570Z,14.84
2022-08-03T01:52:03.763Z,14.86
2022-08-03T01:54:01.516Z,14.78
2022-08-03T01:56:02.781Z,14.73
2022-08-03T01:58:04.520Z,14.71
2022-08-03T02:00:05.992Z,14.59
2022-08-03T02:02:15.818Z,14.57
2022-08-03T02:04:09.260Z,14.56
2022-08-03T02:06:32.935Z,14.5
2022-08-03T02:08:11.315Z,14.6
2022-08-03T02:10:12.232Z,14.64
2022-08-03T02:12:13.803Z,14.57
2022-08-03T02:14:15.513Z,14.47
2022-08-03T02:16:17.150Z,14.35
2022-08-03T02:18:18.232Z,14.32
2022-08-03T02:20:19.132Z,14.28
2022-08-03T02:22:20.570Z,14.32
2022-08-03T02:24:21.678Z,14.36
2022-08-03T02:26:23.491Z,14.38
2022-08-03T02:28:24.546Z,14.48
2022-08-03T02:30:25.692Z,14.51
2022-08-03T02:32:27.550Z,14.52
2022-08-03T02:34:29.062Z,14.54
2022-08-03T02:36:31.343Z,14.45
2022-08-03T02:38:32.192Z,14.34
2022-08-03T02:40:33.887Z,14.22
2022-08-03T02:42:35.137Z,14.16
2022-08-03T02:44:36.899Z,14.08
2022-08-03T02:46:38.602Z,14.03
2022-08-03T02:48:39.647Z,13.97
2022-08-03T02:50:41.571Z,13.88
2022-08-03T02:52:42.727Z,13.88
2022-08-03T02:54:44.530Z,13.99
2022-08-03T02:56:46.256Z,14.07
2022-08-03T02:58:47.504Z,14.08
2022-08-03T03:00:48.866Z,14.1
2022-08-03T03:02:50.392Z,14.09
2022-08-03T03:05:51.198Z,14.08
2022-08-03T03:06:53.635Z,13.98
2022-08-03T03:08:59.503Z,14.03
2022-08-03T03:10:57.162Z,14.02
2022-08-03T03:15:00.266Z,14.04
2022-08-03T03:17:01.413Z,14.05
2022-08-03T03:19:03.194Z,14.07
2022-08-03T03:21:04.516Z,14.04
2022-08-03T03:23:05.580Z,13.98
2022-08-03T03:25:07.477Z,13.89
2022-08-03T03:27:09.107Z,13.81
2022-08-03T03:29:10.402Z,13.76
2022-08-03T03:31:11.546Z,13.67
2022-08-03T03:33:12.857Z,13.6
2022-08-03T03:35:14.153Z,13.54
2022-08-03T03:37:15.714Z,13.54
2022-08-03T03:39:17.029Z,13.53
2022-08-03T03:41:18.554Z,13.54
2022-08-03T03:43:20.294Z,13.51
2022-08-03T03:45:22.069Z,13.55
2022-08-03T03:47:32.184Z,13.52
2022-08-03T03:49:24.590Z,13.46
2022-08-03T03:51:26.403Z,13.44
2022-08-03T03:53:28.051Z,13.52
2022-08-03T03:55:29.863Z,13.55
2022-08-03T03:57:30.786Z,13.53
2022-08-03T03:59:31.781Z,13.56
2022-08-03T04:01:33.594Z,13.64
2022-08-03T04:03:35.189Z,13.7
2022-08-03T04:05:36.322Z,13.74
2022-08-03T04:07:37.873Z,13.72
2022-08-03T04:09:39.254Z,13.72
2022-08-03T04:11:40.671Z,13.68
2022-08-03T04:13:42.597Z,13.64
2022-08-03T04:15:44.111Z,13.55
2022-08-03T04:17:45.511Z,13.52
2022-08-03T04:19:47.428Z,13.43
2022-08-03T04:21:48.743Z,13.5
2022-08-03T04:23:50.045Z,13.54
2022-08-03T04:25:51.295Z,13.54
2022-08-03T04:28:08.304Z,13.46
2022-08-03T04:29:54.512Z,13.41
2022-08-03T04:31:56.420Z,13.4
2022-08-03T04:33:57.733Z,13.37
2022-08-03T04:36:02.428Z,13.31
2022-08-03T04:38:01.169Z,13.28
2022-08-03T04:40:02.432Z,13.24
2022-08-03T04:42:08.469Z,13.24
2022-08-03T04:44:05.419Z,13.41
2022-08-03T04:46:06.898Z,13.8
2022-08-03T04:48:08.646Z,14.34
2022-08-03T04:50:12.608Z,15.39
2022-08-03T04:52:10.727Z,15.86
2022-08-03T04:54:11.598Z,16.08
2022-08-03T04:56:12.647Z,16.48
2022-08-03T04:58:14.509Z,16.61
2022-08-03T05:00:15.797Z,16.48
2022-08-03T05:02:17.811Z,16.77
2022-08-03T05:04:18.522Z,17.28
2022-08-03T05:06:20.169Z,17.26
2022-08-03T05:08:27.980Z,17.37
2022-08-03T05:10:22.613Z,17.99
2022-08-03T05:12:24.235Z,18.58
2022-08-03T05:14:28.230Z,18.16
2022-08-03T05:16:27.706Z,17.32
2022-08-03T05:18:28.604Z,17.23
2022-08-03T05:20:30.032Z,16.67
2022-08-03T05:22:31.140Z,16.75
2022-08-03T05:24:32.536Z,16.81
2022-08-03T05:26:34.036Z,17.38
2022-08-03T05:28:35.754Z,17.66
2022-08-03T05:30:37.020Z,18.23
2022-08-03T05:32:38.597Z,18.31
2022-08-03T05:34:40.322Z,18.02
2022-08-03T05:36:42.077Z,18.78
2022-08-03T05:40:46.851Z,20.22
2022-08-03T05:42:46.389Z,20.16
2022-08-03T05:44:48.134Z,20.09
2022-08-03T05:46:49.436Z,20.88
2022-08-03T05:48:50.285Z,20.91
2022-08-03T05:50:51.823Z,20.87
2022-08-03T05:52:52.944Z,20.89
2022-08-03T05:54:55.636Z,21.35
2022-08-03T05:56:54.996Z,21.57
2022-08-03T05:58:55.987Z,20.99
2022-08-03T06:00:57.455Z,20.5
2022-08-03T06:02:58.380Z,20.53
2022-08-03T06:04:59.859Z,20.82
2022-08-03T06:07:01.123Z,21.16
2022-08-03T06:09:02.492Z,21.1
2022-08-03T06:11:03.583Z,20.43
2022-08-03T06:13:04.557Z,20.56
2022-08-03T06:15:05.465Z,20.59
2022-08-03T06:17:06.691Z,20.28
2022-08-03T06:19:08.353Z,19.71
2022-08-03T06:21:15.036Z,20.06
2022-08-03T06:23:12.134Z,20.52
2022-08-03T06:25:13.022Z,20.78
2022-08-03T06:27:13.266Z,20.84
2022-08-03T06:29:14.537Z,20.32
2022-08-03T06:31:15.658Z,20.27
2022-08-03T06:33:16.606Z,20.31
2022-08-03T06:35:17.467Z,20.92
2022-08-03T06:37:18.952Z,21.51
2022-08-03T06:39:20.649Z,21.54
2022-08-03T06:41:22.070Z,21.32
2022-08-03T06:43:23.695Z,22.23
2022-08-03T06:45:24.857Z,22.27
2022-08-03T06:47:26.247Z,22.3
2022-08-03T06:49:27.349Z,22.33
2022-08-03T06:50:13.068Z,22.62
2022-08-03T06:52:11.803Z,22.5
2022-08-03T06:54:13.217Z,22.55
2022-08-03T06:56:14.098Z,23.26
2022-08-03T06:58:15.374Z,23.73
2022-08-03T07:00:16.658Z,24.1
2022-08-03T07:02:19.195Z,23.96
2022-08-03T07:04:18.973Z,23.83
2022-08-03T07:06:20.084Z,24.09
2022-08-03T07:08:33.316Z,24.24
2022-08-03T07:10:21.826Z,24.18
2022-08-03T07:12:23.029Z,24.87
2022-08-03T07:16:25.625Z,24.83
2022-08-03T07:18:27.654Z,25.06
2022-08-03T07:20:32.466Z,25.03
2022-08-03T07:22:29.986Z,24.75
2022-08-03T07:24:31.430Z,24.57
2022-08-03T07:26:32.339Z,24.15
2022-08-03T07:28:33.223Z,24.56
2022-08-03T07:30:34.944Z,24.58
2022-08-03T07:32:36.298Z,24.52
2022-08-03T07:34:37.891Z,24.35
2022-08-03T07:36:38.826Z,24.41
2022-08-03T07:38:40.126Z,25.1
2022-08-03T07:40:45.833Z,25.61
2022-08-03T07:42:43.223Z,24.85
2022-08-03T07:44:44.558Z,25.08
2022-08-03T07:46:45.986Z,25.67
2022-08-03T07:48:47.335Z,25.87
2022-08-03T07:50:48.214Z,26.36
2022-08-03T07:52:49.156Z,25.95
2022-08-03T07:54:50.369Z,25.76
2022-08-03T07:56:51.735Z,26.04
2022-08-03T07:58:53.716Z,25.99
2022-08-03T08:00:54.538Z,26.16
2022-08-03T08:02:55.261Z,26.45
2022-08-03T08:04:56.636Z,26.56
2022-08-03T08:06:57.850Z,27.32
2022-08-03T08:08:58.921Z,27.25
2022-08-03T08:11:00.361Z,27.18
2022-08-03T08:13:01.396Z,27.26
2022-08-03T08:15:03.036Z,27.83
2022-08-03T08:17:07.214Z,28.63
2022-08-03T08:19:05.593Z,28.51
2022-08-03T08:21:06.714Z,27.97
2022-08-03T08:23:08.920Z,28.5
2022-08-03T08:25:08.882Z,28.81
2022-08-03T08:27:10.323Z,29.46
2022-08-03T08:29:11.192Z,29.51
2022-08-03T08:31:12.676Z,29.75
2022-08-03T08:33:22.866Z,30.35
2022-08-03T08:35:15.259Z,29.34
2022-08-03T08:37:16.996Z,29.29
2022-08-03T08:39:18.498Z,29.63
2022-08-03T08:41:19.942Z,29.84
2022-08-03T08:43:20.656Z,29.56
2022-08-03T08:45:21.652Z,29.56
2022-08-03T08:47:22.475Z,30.04
2022-08-03T08:49:24.194Z,30.03
2022-08-03T08:51:24.950Z,30.28
2022-08-03T08:53:27.539Z,30.59
2022-08-03T08:57:42.207Z,30.82
2022-08-03T08:59:36.378Z,30.86
2022-08-03T09:01:30.576Z,31.31
2022-08-03T09:03:31.857Z,31.35
2022-08-03T09:05:54.793Z,29.73
2022-08-03T09:07:34.323Z,30.2
2022-08-03T09:10:00.436Z,30.79
2022-08-03T09:11:51.815Z,30.48
2022-08-03T09:13:38.661Z,30.79
2022-08-03T09:15:39.428Z,30.7
2022-08-03T09:17:40.768Z,31.47
2022-08-03T09:19:42.157Z,31.31
2022-08-03T09:21:43.476Z,31.14
2022-08-03T09:25:46.000Z,30.62
2022-08-03T09:27:47.413Z,30.73
2022-08-03T09:29:48.204Z,31.07
2022-08-03T09:31:49.016Z,30.78
2022-08-03T09:33:50.095Z,31.15
2022-08-03T09:35:53.898Z,31.79
2022-08-03T09:38:06.058Z,31.3
2022-08-03T09:39:53.480Z,31.65
2022-08-03T09:41:55.038Z,31.63
2022-08-03T09:43:56.719Z,32.18
2022-08-03T09:45:58.095Z,31.87
2022-08-03T09:47:59.198Z,32.23
2022-08-03T09:50:00.862Z,31.78
2022-08-03T09:52:27.382Z,32.16
2022-08-03T09:54:03.121Z,31.98
2022-08-03T09:56:35.358Z,31.83
2022-08-03T09:58:05.071Z,30.86
2022-08-03T10:00:08.131Z,31.05
2022-08-03T10:02:07.862Z,31.78
2022-08-03T10:04:09.312Z,31.05
2022-08-03T10:06:10.737Z,31.31
2022-08-03T10:08:12.040Z,31.72
2022-08-03T10:10:28.693Z,31.95
2022-08-03T10:12:14.214Z,32.04
2022-08-03T10:14:15.801Z,32.06
2022-08-03T10:16:20.737Z,31.94
2022-08-03T10:18:19.174Z,32.28
2022-08-03T10:20:20.345Z,32.19
2022-08-03T10:22:21.335Z,32.91
2022-08-03T10:24:22.754Z,32.35
2022-08-03T10:26:23.528Z,32.56
2022-08-03T10:28:25.250Z,33.08
2022-08-03T10:30:26.646Z,32.79
2022-08-03T10:32:28.306Z,32.05
2022-08-03T10:34:29.699Z,32.35
2022-08-03T10:38:31.567Z,32.33
2022-08-03T10:40:47.869Z,32.42
2022-08-03T10:42:33.954Z,32.84
2022-08-03T10:44:35.174Z,32.55
2022-08-03T10:46:36.152Z,31.89
2022-08-03T10:48:37.630Z,32.07
2022-08-03T10:50:38.492Z,32.98
2022-08-03T10:52:41.371Z,33.08
2022-08-03T10:54:40.987Z,33.08
2022-08-03T10:56:49.936Z,32.96
2022-08-03T10:58:53.595Z,33.17
2022-08-03T11:00:44.752Z,33.22
2022-08-03T11:02:46.376Z,33.51
2022-08-03T11:04:47.544Z,32.59
2022-08-03T11:06:48.837Z,32.69
2022-08-03T11:08:50.114Z,32.9
2022-08-03T11:10:51.197Z,33.45
2022-08-03T11:12:52.724Z,33.01
2022-08-03T11:14:53.439Z,32.79
2022-08-03T11:16:54.580Z,33.35
2022-08-03T11:18:55.433Z,33.05
2022-08-03T11:20:56.593Z,33.42
2022-08-03T11:22:57.593Z,33.69
2022-08-03T11:24:58.854Z,33.6
2022-08-03T11:27:03.057Z,34.08
2022-08-03T11:29:01.063Z,33.98
2022-08-03T11:31:02.490Z,33.44
2022-08-03T11:33:03.298Z,32.85
2022-08-03T11:35:04.232Z,32.84
2022-08-03T11:37:05.177Z,32.53
2022-08-03T11:39:06.294Z,32.84
2022-08-03T11:41:07.422Z,33.1
2022-08-03T11:43:08.792Z,33.58
2022-08-03T11:45:09.734Z,33.8
2022-08-03T11:47:10.781Z,34.25
2022-08-03T11:49:11.847Z,33.57
2022-08-03T11:51:12.734Z,33.21
2022-08-03T11:53:14.429Z,33.71
2022-08-03T11:55:15.427Z,33.42
2022-08-03T11:57:16.658Z,33.68
2022-08-03T11:59:21.482Z,33.39
2022-08-03T12:01:22.962Z,33.77
2022-08-03T12:03:21.038Z,34.17
2022-08-03T12:05:22.019Z,34.83
2022-08-03T12:08:02.978Z,35.02
2022-08-03T12:09:24.469Z,35.04
2022-08-03T12:11:25.750Z,34.66
2022-08-03T12:13:57.437Z,34.09
2022-08-03T12:15:28.116Z,34.28
2022-08-03T12:17:29.465Z,33.84
2022-08-03T12:19:31.030Z,34.25
2022-08-03T12:21:32.023Z,34.75
2022-08-03T12:23:37.382Z,34.88
2022-08-03T12:25:38.956Z,35.01
2022-08-03T12:27:35.593Z,34.41
2022-08-03T12:29:37.190Z,34.78
2022-08-03T12:31:38.528Z,34.6
2022-08-03T12:33:39.545Z,33.67
2022-08-03T12:35:41.031Z,33.85
2022-08-03T12:37:42.558Z,34.12
2022-08-03T12:40:00.856Z,34.46
2022-08-03T12:41:45.410Z,34.89
2022-08-03T12:43:46.673Z,34.23
2022-08-03T12:45:48.211Z,34.65
2022-08-03T12:47:48.952Z,34.81
2022-08-03T12:49:49.824Z,34.42
2022-08-03T12:51:51.074Z,34.49
2022-08-03T12:53:52.441Z,34.5
2022-08-03T12:55:57.978Z,34.05
2022-08-03T12:57:55.178Z,34.29
2022-08-03T12:59:56.240Z,34.43
2022-08-03T13:01:57.527Z,34
2022-08-03T13:03:58.457Z,34.45
2022-08-03T13:05:59.862Z,34.45
2022-08-03T13:08:00.841Z,35.53
2022-08-03T13:10:06.292Z,34.72
2022-08-03T13:12:02.928Z,35.29
2022-08-03T13:14:04.563Z,35.09
2022-08-03T13:16:05.626Z,34.47
2022-08-03T13:18:07.152Z,35.05
2022-08-03T13:20:08.030Z,35.39
2022-08-03T13:22:08.886Z,35.28
2022-08-03T13:24:10.036Z,35.38
2022-08-03T13:26:11.014Z,34.77
2022-08-03T13:28:14.266Z,34.82
2022-08-03T13:30:13.462Z,35.14
2022-08-03T13:32:14.746Z,34.61
2022-08-03T13:34:17.749Z,35.13
2022-08-03T13:35:16.554Z,34.71
2022-08-03T13:37:17.822Z,34.15
2022-08-03T13:39:18.586Z,34.49
2022-08-03T13:41:19.336Z,34.88
2022-08-03T13:43:30.428Z,35.18
2022-08-03T13:45:21.587Z,35.6
2022-08-03T13:47:23.396Z,35.33
2022-08-03T13:49:24.733Z,35.65
2022-08-03T13:51:26.911Z,35.74
2022-08-03T13:53:26.478Z,35.6
2022-08-03T13:55:27.622Z,35.45
2022-08-03T13:58:01.914Z,35.86
2022-08-03T13:59:30.018Z,35.9
2022-08-03T14:01:53.903Z,34.53
2022-08-03T14:03:32.291Z,35.51
2022-08-03T14:05:33.456Z,36.12
2022-08-03T14:07:34.942Z,35.83
2022-08-03T14:09:36.092Z,35.3
2022-08-03T14:12:03.905Z,35.02
2022-08-03T14:13:37.991Z,35.86
2022-08-03T14:15:39.114Z,35.33
2022-08-03T14:17:42.466Z,35.36
2022-08-03T14:19:52.857Z,35.23
2022-08-03T14:21:42.414Z,34.93
2022-08-03T14:23:43.546Z,34.87
2022-08-03T14:25:50.666Z,35.32
2022-08-03T14:27:46.162Z,35.25
2022-08-03T14:29:47.273Z,35.6
2022-08-03T14:32:10.778Z,35.8
2022-08-03T14:33:49.296Z,36.07
2022-08-03T14:35:50.612Z,36.96
2022-08-03T14:37:51.871Z,36.86
2022-08-03T14:40:00.870Z,36.12
2022-08-03T14:41:54.359Z,36.35
2022-08-03T14:44:00.378Z,36.2
2022-08-03T14:45:57.217Z,36.67
2022-08-03T14:50:10.290Z,36.77
2022-08-03T14:50:35.345Z,36.8
2022-08-03T14:52:00.989Z,36.12
2022-08-03T14:54:02.229Z,35.97
2022-08-03T14:56:07.915Z,36.3
2022-08-03T14:58:04.729Z,35.4
2022-08-03T15:00:05.937Z,35.52
2022-08-03T15:02:10.251Z,34.84
2022-08-03T15:04:07.540Z,34.46
2022-08-03T15:06:08.900Z,35.27
2022-08-03T15:08:10.152Z,34.89
2022-08-03T15:10:10.939Z,34.71
2022-08-03T15:12:12.625Z,34.6
2022-08-03T15:14:14.738Z,34.86
2022-08-03T15:16:14.928Z,34.43
2022-08-03T15:18:16.499Z,34.86
2022-08-03T15:20:19.633Z,35.31
2022-08-03T15:22:20.579Z,35.86
2022-08-03T15:26:32.580Z,36.57
2022-08-03T15:28:23.274Z,36.06
2022-08-03T15:30:24.567Z,36.38
2022-08-03T15:32:25.462Z,36.14
2022-08-03T15:34:26.709Z,36.06
2022-08-03T15:36:27.881Z,35.96
2022-08-03T15:38:28.848Z,36.29
2022-08-03T15:40:30.478Z,35.09
2022-08-03T15:42:31.889Z,35.27
2022-08-03T15:44:32.945Z,34.47
2022-08-03T15:46:34.650Z,34.84
2022-08-03T15:48:36.149Z,35.2
2022-08-03T15:50:37.605Z,35.91
2022-08-03T15:52:39.111Z,35.84
2022-08-03T15:54:40.730Z,35.86
2022-08-03T15:56:42.304Z,36.2
2022-08-03T15:58:59.033Z,35.85
2022-08-03T16:00:44.712Z,36.33
2022-08-03T16:02:46.269Z,36.48
2022-08-03T16:04:47.025Z,36.39
2022-08-03T16:06:48.296Z,36.35
2022-08-03T16:08:49.200Z,36.13
2022-08-03T16:10:50.322Z,36.31
2022-08-03T16:12:51.811Z,36.7
2022-08-03T16:14:53.690Z,36.67
2022-08-03T16:16:53.819Z,36.92
2022-08-03T16:18:55.200Z,35.93
2022-08-03T16:20:56.493Z,35.48
2022-08-03T16:22:57.350Z,35.56
2022-08-03T16:24:58.950Z,35.57
2022-08-03T16:27:00.629Z,35.81
2022-08-03T16:29:00.874Z,36.05
2022-08-03T16:31:02.502Z,35.6
2022-08-03T16:33:03.542Z,36.11
2022-08-03T16:35:04.698Z,35.59
2022-08-03T16:37:22.411Z,35.88
2022-08-03T16:39:07.166Z,36.36
2022-08-03T16:41:08.510Z,36.58
2022-08-03T16:43:09.923Z,36.38
2022-08-03T16:45:11.212Z,36.24
2022-08-03T16:47:22.016Z,35.76
2022-08-03T16:49:14.065Z,35
2022-08-03T16:51:14.903Z,35.33
2022-08-03T16:53:17.300Z,35.57
2022-08-03T16:55:18.492Z,35.56
2022-08-03T16:57:18.241Z,35.36
2022-08-03T16:59:19.411Z,35.69
2022-08-03T17:01:22.667Z,35.45
2022-08-03T17:03:24.189Z,35.55
2022-08-03T17:05:23.138Z,36.24
2022-08-03T17:07:24.377Z,36.92
2022-08-03T17:09:25.846Z,36.72
2022-08-03T17:11:26.840Z,36.48
2022-08-03T17:13:27.870Z,35.83
2022-08-03T17:15:37.812Z,35.55
2022-08-03T17:17:37.776Z,35.39
2022-08-03T17:19:32.691Z,34.92
2022-08-03T17:21:34.119Z,34.35
2022-08-03T17:23:35.821Z,33.96
2022-08-03T17:25:40.104Z,33.66
2022-08-03T17:28:42.845Z,33.47
2022-08-03T17:29:38.899Z,33.32
2022-08-03T17:31:48.615Z,33.15
2022-08-03T17:33:41.138Z,33
2022-08-03T17:35:41.937Z,32.94
2022-08-03T17:37:50.358Z,32.88
2022-08-03T17:39:57.997Z,32.84
2022-08-03T17:41:48.925Z,32.81
2022-08-03T17:44:14.696Z,32.73
2022-08-03T17:45:52.668Z,32.69
2022-08-03T17:47:57.232Z,32.56
2022-08-03T17:49:51.779Z,32.47
2022-08-03T17:51:53.725Z,32.41
2022-08-03T17:53:54.759Z,32.36
2022-08-03T17:55:59.539Z,32.3
2022-08-03T17:58:01.664Z,32.09
2022-08-03T17:59:58.483Z,31.91
2022-08-03T18:02:06.445Z,31.78
2022-08-03T18:04:01.222Z,31.67
2022-08-03T18:06:09.168Z,31.63
2022-08-03T18:08:06.873Z,31.47
2022-08-03T18:10:11.127Z,31.59
2022-08-03T18:12:06.520Z,31.52
2022-08-03T18:14:15.910Z,31.4
2022-08-03T18:16:18.286Z,31.26
2022-08-03T18:18:11.211Z,31.1
2022-08-03T18:20:32.524Z,30.94
2022-08-03T18:22:13.161Z,30.79
2022-08-03T18:24:14.154Z,30.67
2022-08-03T18:26:15.270Z,30.56
2022-08-03T18:28:18.584Z,30.46
2022-08-03T18:30:18.631Z,30.32
2022-08-03T18:32:19.980Z,30.25
2022-08-03T18:34:32.396Z,30.13
2022-08-03T18:36:29.834Z,29.99
2022-08-03T18:38:23.834Z,29.84
2022-08-03T18:40:25.162Z,29.77
2022-08-03T18:42:26.991Z,29.65
2022-08-03T18:44:37.910Z,29.59
2022-08-03T18:46:29.184Z,29.43
2022-08-03T18:48:30.256Z,29.3
2022-08-03T18:50:31.922Z,29.08
2022-08-03T18:52:33.629Z,28.87
2022-08-03T18:54:44.673Z,28.7
2022-08-03T18:56:36.335Z,28.55
2022-08-03T18:58:38.619Z,28.4
2022-08-03T19:00:42.783Z,28.34
2022-08-03T19:02:41.300Z,28.22
2022-08-03T19:04:42.156Z,28.14
2022-08-03T19:06:43.807Z,28.11
2022-08-03T19:08:45.186Z,28.1
2022-08-03T19:10:57.595Z,28.41
2022-08-03T19:12:48.007Z,28.42
2022-08-03T19:14:48.863Z,28.37
2022-08-03T19:16:50.548Z,28.24
2022-08-03T19:18:51.398Z,28.02
2022-08-03T19:20:53.270Z,27.79
2022-08-03T19:22:54.245Z,27.72
2022-08-03T19:24:55.834Z,27.59
2022-08-03T19:26:57.177Z,27.41
2022-08-03T19:28:58.318Z,27.28
2022-08-03T19:30:59.172Z,27.12
2022-08-03T19:33:00.240Z,26.8
2022-08-03T19:35:01.831Z,26.62
2022-08-03T19:37:03.319Z,26.47
2022-08-03T19:39:05.468Z,26.31
2022-08-03T19:41:06.190Z,26.16
2022-08-03T19:43:07.219Z,26.06
2022-08-03T19:45:11.166Z,25.89
2022-08-03T19:47:10.375Z,25.76
2022-08-03T19:49:14.936Z,25.65
2022-08-03T19:51:12.740Z,25.78
2022-08-03T19:53:13.858Z,25.8
2022-08-03T19:55:15.314Z,25.76
2022-08-03T19:57:17.022Z,25.69
2022-08-03T19:59:18.135Z,25.78
2022-08-03T20:01:21.409Z,25.95
2022-08-03T20:03:22.083Z,25.88
2022-08-03T20:05:22.102Z,25.82
2022-08-03T20:07:23.022Z,25.73
2022-08-03T20:09:24.441Z,25.84
2022-08-03T20:11:28.564Z,25.86
2022-08-03T20:13:28.278Z,25.79
2022-08-03T20:15:30.988Z,25.66
2022-08-03T20:17:55.690Z,25.57
2022-08-03T20:19:32.559Z,25.48
2022-08-03T20:24:23.923Z,25.25
2022-08-03T20:26:17.469Z,25.18
2022-08-03T20:28:18.966Z,24.98
2022-08-03T20:30:19.971Z,24.9
2022-08-03T20:32:24.578Z,25.02
2022-08-03T20:34:22.722Z,24.93
2022-08-03T20:36:23.924Z,24.83
2022-08-03T20:38:27.130Z,24.73
2022-08-03T20:40:27.462Z,24.58
2022-08-03T20:42:27.827Z,24.38
2022-08-03T20:44:29.446Z,24.4
2022-08-03T20:46:41.648Z,24.32
2022-08-03T20:48:31.609Z,24.25
2022-08-03T20:50:32.583Z,24.2
2022-08-03T20:52:33.406Z,24.02
2022-08-03T20:54:34.572Z,23.83
2022-08-03T20:56:36.327Z,23.81
2022-08-03T20:58:37.425Z,23.75
2022-08-03T21:00:38.444Z,23.61
2022-08-03T21:02:39.283Z,23.68
2022-08-03T21:04:41.517Z,23.61
2022-08-03T21:06:42.400Z,23.69
2022-08-03T21:08:46.802Z,23.57
2022-08-03T21:10:45.374Z,23.42
2022-08-03T21:12:47.113Z,23.35
2022-08-03T21:14:50.495Z,23.31
2022-08-03T21:16:49.603Z,23.29
2022-08-03T21:18:51.335Z,23.32
2022-08-03T21:20:52.317Z,23.29
2022-08-03T21:22:53.166Z,23.17
2022-08-03T21:24:55.784Z,23.1
2022-08-03T21:26:55.917Z,22.91
2022-08-03T21:28:57.729Z,22.83
2022-08-03T21:30:59.384Z,22.8
2022-08-03T21:33:00.427Z,22.78
2022-08-03T21:35:01.760Z,22.74
2022-08-03T21:37:02.873Z,22.83
2022-08-03T21:39:04.676Z,22.82
2022-08-03T21:41:05.763Z,22.68
2022-08-03T21:43:06.637Z,22.52
2022-08-03T21:45:07.971Z,22.37
2022-08-03T21:47:09.294Z,22.27
2022-08-03T21:49:51.634Z,22.16
2022-08-03T21:51:11.601Z,22.01
2022-08-03T21:53:12.921Z,21.83
2022-08-03T21:55:18.706Z,21.76
2022-08-03T21:57:16.176Z,21.77
2022-08-03T21:59:17.708Z,21.68
2022-08-03T22:01:19.490Z,21.59
2022-08-03T22:03:20.271Z,21.48
2022-08-03T22:05:24.962Z,21.41
2022-08-03T22:07:22.976Z,21.37
2022-08-03T22:09:24.215Z,21.31
2022-08-03T22:11:25.878Z,21.26
2022-08-03T22:13:43.413Z,21.31
2022-08-03T22:15:29.101Z,21.3
2022-08-03T22:17:53.578Z,21.17
2022-08-03T22:19:31.458Z,21.11
2022-08-03T22:21:35.986Z,21.2
2022-08-03T22:23:34.027Z,21.26
2022-08-03T22:25:35.495Z,21.21
2022-08-03T22:27:36.839Z,21.17
2022-08-03T22:29:38.669Z,21.12
2022-08-03T22:31:57.848Z,21.02
2022-08-03T22:33:41.141Z,21.08
2022-08-03T22:35:44.176Z,21.04
2022-08-03T22:37:43.438Z,20.99
2022-08-03T22:39:45.119Z,20.95
2022-08-03T22:41:46.936Z,20.94
2022-08-03T22:43:48.146Z,20.82
2022-08-03T22:46:08.576Z,20.7
2022-08-03T22:47:50.588Z,20.61
2022-08-03T22:50:31.000Z,20.48
2022-08-03T22:51:53.635Z,20.44
2022-08-03T22:53:54.787Z,20.38
2022-08-03T22:55:56.313Z,20.41
2022-08-03T22:57:57.935Z,20.4
2022-08-03T22:59:58.955Z,20.49
2022-08-03T23:01:59.842Z,20.44
2022-08-03T23:04:02.390Z,20.42
2022-08-03T23:06:03.505Z,20.38
2022-08-03T23:08:03.946Z,20.31
2022-08-03T23:10:05.361Z,20.25
2022-08-03T23:12:07.176Z,20.17
2022-08-03T23:14:08.694Z,20.19
2022-08-03T23:16:10.172Z,20.12
2022-08-03T23:18:11.153Z,20.15
2022-08-03T23:20:12.541Z,20.16
2022-08-03T23:22:22.364Z,20.1
2022-08-03T23:24:17.689Z,19.99
2022-08-03T23:26:16.573Z,19.91
2022-08-03T23:28:18.408Z,19.82
2022-08-03T23:30:19.793Z,19.73
2022-08-03T23:32:21.097Z,19.73
2022-08-03T23:34:22.718Z,19.59
2022-08-03T23:36:31.375Z,19.57
2022-08-03T23:38:26.206Z,19.52
2022-08-03T23:40:27.412Z,19.41
2022-08-03T23:42:29.007Z,19.4
2022-08-03T23:44:30.172Z,19.39
2022-08-03T23:46:31.928Z,19.33
2022-08-03T23:48:32.979Z,19.31
2022-08-03T23:50:34.383Z,19.35
2022-08-03T23:52:36.085Z,19.27
2022-08-03T23:54:37.668Z,19.11
2022-08-03T23:56:39.216Z,19.03
2022-08-03T23:58:40.627Z,18.97
